Tikaboo Peak, Nevada Weather observations

Data are for 10 minute period ending at time listed.
 Day   Time   Solar   Ave.   Ave.  Ave.  Vector  Max.   Baro.   Total    
  of    of     Rad.   Air    Rel.  Wind   Wind   Wind  Press.  Precip.   
Year   Day            Temp.  Hum.  Speed  Dir.   Gust                    
2017   (PST)  Kw/m2    F      %     mph   deg.    mph    mb.     in.     
-------------------------------------------------------------------------
 142   10:30   1.03   62.3    28    6.0   172    12.3   768.1    0.00 
 142   10:40   1.09   62.9    28    4.7   188    10.0   768.1    0.00 
 142   10:50   1.14   63.0    27    4.2   190    10.4   768.0    0.00 
 142   11:00   0.77   63.3    25    3.2   192    11.7   768.1    0.00 
 142   11:10   1.01   61.9    26    2.7   219    10.0   767.9    0.00 
 142   11:20   1.05   64.3    25    2.6   192    10.5   767.9    0.00 
 142   11:30   1.16   63.5    25    4.5   180     9.6   767.8    0.00 
 142   11:40   1.18   64.7    24    3.3   125     9.1   767.8    0.00 
 142   11:50   1.09   67.1    22    2.1   110     6.2   767.7    0.00 
 142   12:00   1.12   68.2    21    4.0   118    10.1   767.7    0.00 
 142   12:10   1.13   69.3    20    2.7    93     8.3   767.6    0.00 
 142   12:20   1.12   70.2    19    5.0    68    12.6   767.5    0.00 
 142   12:30   1.11   70.6    19    4.8    85    13.4   767.4    0.00 
 142   12:40   1.10   70.3    18    2.8    86     8.3   767.3    0.00 
 142   12:50   1.13   73.3    17    4.1   108    13.1   767.3    0.00 
 142   13:00   1.18   74.6    15    3.6   115    10.4   767.3    0.00 
 142   13:10   1.21   72.2    17    3.0   117    12.4   767.3    0.00 
 142   13:20   1.14   74.2    16    3.7    88    14.7   767.4    0.00 
 142   13:30   1.01   74.8    16    3.9    86    14.1   767.3    0.00 
 142   13:40   0.98   73.8    16    5.9    90    14.5   767.3    0.00 
 142   13:50   0.98   72.7    17    6.0   108    15.6   767.4    0.00 
 142   14:00   0.95   72.7    15    3.8   107    11.2   767.2    0.00 
 142   14:10   0.88   72.9    16    1.8   124     9.0   767.3    0.00 
 142   14:20   0.85   72.2    17    3.3    83    12.3   767.1    0.00 
 142   14:30   0.72   72.6    17    3.6    83    11.4   767.1    0.00 
 142   14:40   0.64   70.6    17    3.5   354     9.6   767.1    0.00 
 142   14:50   0.75   71.2    18    1.7    58     9.1   767.0    0.00 
 142   15:00   0.72   72.8    16    1.4   175     5.0   766.8    0.00 
 142   15:10   0.69   72.7    15    4.2    84    14.3   766.8    0.00 
 142   15:20   0.65   72.4    15    3.4    77    11.2   766.8    0.00 
 142   15:30   0.62   72.4    13    2.7   106    10.3   766.7    0.00 
 142   15:40   0.58   72.4    12    1.5    76     6.1   766.8    0.00 
 142   15:50   0.54   71.4    12    1.3   357     5.0   766.7    0.00 
 142   16:00   0.50   71.8    12    1.6    48     8.8   766.7    0.00 
 142   16:10   0.46   72.7    12    1.4    66     6.9   766.6    0.00 
 142   16:20   0.42   71.8    12    2.6   100     9.9   766.4    0.00 
 142   16:30   0.39   71.3    13    3.1   115     8.4   766.3    0.00 
 142   16:40   0.35   71.0    12    1.4   323     4.7   766.2    0.00 
 142   16:50   0.31   70.9    12    2.1    38     8.8   766.2    0.00 
 142   17:00   0.27   69.1    13    1.6   110     8.3   766.2    0.00 
 142   17:10   0.24   67.6    14    2.7   100    10.5   766.1    0.00 
 142   17:20   0.20   67.0    14    1.7    99    11.0   766.1    0.00 
 142   17:30   0.17   66.0    14    1.7    85    11.4   766.1    0.00 
 142   17:40   0.14   65.5    14    3.1    78     9.9   766.2    0.00 
 142   17:50   0.11   65.1    14    4.1   106    11.7   766.2    0.00 
 142   18:00   0.09   65.0    14    2.2    98     9.0   766.4    0.00 
 142   18:10   0.07   64.8    15    2.6   131    11.0   766.3    0.00 
 142   18:20   0.05   65.5    17    4.5   110    10.3   766.4    0.00 
 142   18:30   0.03   65.3    17    5.4   141    11.1   766.4    0.00 
 142   18:40   0.02   65.2    17    6.5   114    10.9   766.5    0.00 
 142   18:50   0.01   64.7    18    4.7   164     7.8   766.6    0.00 
 142   19:00   0.00   63.4    19    4.0   164     7.5   766.6    0.00 
 142   19:10   0.00   63.3    19    5.2   189     8.7   766.6    0.00 
 142   19:20   0.00   63.6    18    7.4   168    11.5   766.6    0.00 
 142   19:30   0.00   63.6    17    9.0   174    15.0   766.7    0.00 
 142   19:40   0.00   62.7    20   11.2   192    12.9   766.7    0.00 
 142   19:50   0.00   62.5    20   10.7   186    12.3   766.8    0.00 
 142   20:00   0.00   62.5    20   10.5   186    12.6   766.9    0.00 
 142   20:10   0.00   62.3    19    9.6   187    13.4   767.0    0.00 
 142   20:20   0.00   61.8    19   11.6   191    13.6   766.9    0.00 
 142   20:30   0.00   61.7    18   11.8   189    15.3   767.0    0.00 
 142   20:40   0.00   61.7    18   11.6   193    14.5   767.0    0.00 
 142   20:50   0.00   61.5    18   12.2   212    15.9   767.0    0.00 
 142   21:00   0.00   61.7    18   11.6   233    13.2   767.0    0.00 
 142   21:10   0.00   61.8    18   11.7   244    12.9   767.0    0.00 
 142   21:20   0.00   61.8    18   12.8   231    14.7   767.0    0.00 
 142   21:30   0.00   61.8    18   11.2   229    13.1   767.1    0.00 
 142   21:40   0.00   61.9    18   10.3   239    12.6   767.0    0.00 
 142   21:50   0.00   61.9    18   10.7   236    12.2   767.1    0.00 
 142   22:00   0.00   61.7    18   11.4   236    12.6   767.1    0.00 
 142   22:10   0.00   61.7    18    9.4   245    10.2   767.1    0.00 
 142   22:20   0.00   61.5    18    9.7   235    11.5   767.1    0.00 
 142   22:30   0.00   61.3    17   11.7   240    15.8   767.2    0.00 
 142   22:40   0.00   60.9    17   15.6   242    18.3   767.2    0.00 
 142   22:50   0.00   60.4    17   13.7   245    16.5   767.2    0.00 
 142   23:00   0.00   60.2    20   13.8   248    15.3   767.2    0.00 
 142   23:10   0.00   60.4    19   11.7   241    13.2   767.1    0.00 
 142   23:20   0.00   60.1    21   11.3   241    12.0   767.1    0.00 
 142   23:30   0.00   59.8    22   11.7   243    12.5   767.0    0.00 
 142   23:40   0.00   60.0    22   10.9   240    11.8   767.1    0.00 
 142   23:50   0.00   59.5    24   11.9   240    14.4   767.0    0.00 
 143    0:00   0.00   59.3    24   12.8   244    16.8   767.0    0.00 
 143    0:10   0.00   58.9    25   13.8   245    16.4   767.0    0.00 
 143    0:20   0.00   58.9    26   13.9   242    15.9   766.9    0.00 
 143    0:30   0.00   58.6    26   13.2   240    15.1   767.0    0.00 
 143    0:40   0.00   58.5    27   13.8   243    16.9   766.9    0.00 
 143    0:50   0.00   58.4    27   10.4   243    13.7   766.9    0.00 
 143    1:00   0.00   58.6    26    9.7   246    13.1   766.9    0.00 
 143    1:10   0.00   58.3    27   11.9   250    14.5   766.9    0.00 
 143    1:20   0.00   58.1    27   10.6   248    12.9   766.9    0.00 
 143    1:30   0.00   58.3    26    8.8   253     9.6   766.9    0.00 
 143    1:40   0.00   58.4    26    7.7   262     8.2   766.9    0.00 
 143    1:50   0.00   58.2    26    7.2   269     8.1   766.9    0.00 
 143    2:00   0.00   58.0    26    5.4   271     7.2   766.9    0.00 
 143    2:10   0.00   58.1    26    4.8   260     7.0   766.9    0.00 
 143    2:20   0.00   58.1    26    3.6   239     6.0   766.9    0.00 
 143    2:30   0.00   58.0    27    5.1   234     7.8   767.0    0.00 
 143    2:40   0.00   58.2    25    2.9   233     5.9   767.0    0.00 
 143    2:50   0.00   58.6    24    2.6   248     4.4   767.0    0.00 
 143    3:00   0.00   58.4    25    1.7   252     2.6   767.0    0.00 
 143    3:10   0.00   57.9    26    2.2   238     3.5   767.0    0.00 
 143    3:20   0.00   57.6    26    1.5   236     2.7   767.0    0.00 
 143    3:30   0.00   57.7    26    3.6   249     5.8   767.0    0.00 
 143    3:40   0.00   57.5    27    5.9   242     9.1   767.1    0.00 
 143    3:50   0.00   57.0    29    9.8   233    12.3   767.1    0.00 
 143    4:00   0.00   56.8    29   10.3   229    12.3   767.1    0.00 
 143    4:10   0.00   56.7    29   11.7   227    14.4   767.1    0.00 
 143    4:20   0.00   56.5    28   11.6   221    14.0   767.1    0.00 
 143    4:30   0.01   56.3    28   11.9   218    16.7   767.1    0.00 
 143    4:40   0.04   56.6    27   13.1   218    15.6   767.1    0.00 
 143    4:50   0.07   56.9    26   12.1   218    15.0   767.2    0.00 
 143    5:00   0.10   57.4    26   12.0   228    14.8   767.2    0.00 
 143    5:10   0.14   58.3    25   10.8   225    15.1   767.3    0.00 
 143    5:20   0.17   58.7    24   10.2   226    12.9   767.4    0.00 
 143    5:30   0.21   59.1    25   11.8   233    14.5   767.4    0.00 
 143    5:40   0.25   60.0    24   10.4   237    12.3   767.4    0.00 
 143    5:50   0.29   61.1    24    6.9   236    12.1   767.5    0.00 
 143    6:00   0.33   61.5    23    7.6   216    11.2   767.5    0.00 
 143    6:10   0.37   62.0    23    7.2   217     9.7   767.5    0.00 
 143    6:20   0.41   63.0    23    5.6   248     9.3   767.6    0.00 
 143    6:30   0.45   62.9    22    7.5   250    11.1   767.7    0.00 
 143    6:40   0.49   61.6    22    8.9   237    11.4   767.8    0.00 
 143    6:50   0.53   61.3    23    9.2   244    11.9   767.8    0.00 
 143    7:00   0.57   61.7    23    9.3   241    11.2   767.7    0.00 
 143    7:10   0.61   62.4    22    8.6   244    11.8   767.7    0.00 
 143    7:20   0.64   63.5    22    7.4   242    10.4   767.7    0.00 
 143    7:30   0.68   64.0    21    7.5   252    10.9   767.7    0.00 
 143    7:40   0.72   63.9    21    7.1   262    10.5   767.7    0.00 
 143    7:50   0.75   64.1    21    6.4   272    10.9   767.7    0.00 
 143    8:00   0.78   64.9    21    5.3   294     8.3   767.9    0.00 
 143    8:10   0.81   65.2    21    5.1   307     8.3   767.8    0.00 
 143    8:20   0.84   66.7    20    4.1   299     8.4   767.8    0.00 
 143    8:30   0.88   67.2    20    5.0   283     9.5   767.8    0.00 
 143    8:40   0.90   68.0    20    4.2   332     9.2   767.8    0.00 
 143    8:50   0.93   67.9    19    4.3   308     9.3   767.8    0.00 
 143    9:00   0.95   67.9    19    4.4   316     8.2   767.9    0.00 
 143    9:10   0.98   66.8    20    3.2   333     8.0   767.8    0.00 
 143    9:20   1.00   68.3    20    2.6     3     9.3   767.8    0.00 
 143    9:30   1.02   69.7    18    2.8    10     7.5   767.7    0.00 
 143    9:40   1.04   70.7    18    3.3     0     8.0   767.7    0.00 
 143    9:50   1.05   70.2    18    2.6    19     9.8   767.7    0.00 
 143   10:00   1.08   70.8    18    3.7    17    10.8   767.8    0.00 
 143   10:10   1.09   70.1    17    4.6     1    11.5   767.8    0.00 
 143   10:20   1.10   71.5    17    3.3     0     9.4   767.8    0.00 

Return to Tikaboo Peak graphs page.


Western Regional Climate Center,wrcc@dri.edu